Time;durP1;ratioP1;P1;durP2;ratioP2;P2;SDS_P1;SDS_P2;PMS_P1;PMS_P2;Temp;Humidity;BMP_temperature;BMP_pressure;BME280_temperature;BME280_humidity;BME280_pressure;Samples;Min_cycle;Max_cycle;Signal;HPM_P1;HPM_P2
2023/03/23 00:01:51;;;;;;;15.27;11.20;;;9.60;98.60;;;;;;5024141;28;20473;-83
2023/03/23 00:04:17;;;;;;;19.20;11.00;;;9.60;98.80;;;;;;5045023;28;20504;-81
2023/03/23 00:06:45;;;;;;;17.65;11.50;;;9.60;98.90;;;;;;5041989;28;20037;-80
2023/03/23 00:09:12;;;;;;;19.80;12.32;;;9.60;99.00;;;;;;5045603;28;20466;-83
2023/03/23 00:11:38;;;;;;;19.20;12.73;;;9.60;99.10;;;;;;5040237;28;20033;-83
2023/03/23 00:14:05;;;;;;;21.23;12.93;;;9.60;99.20;;;;;;5049567;28;20025;-83
2023/03/23 00:16:32;;;;;;;21.77;13.80;;;9.60;99.20;;;;;;5050298;28;20037;-83
2023/03/23 00:19:04;;;;;;;23.42;14.63;;;9.60;99.30;;;;;;5044184;28;20103;-83
2023/03/23 00:21:33;;;;;;;25.98;13.88;;;9.60;99.30;;;;;;5046715;28;20037;-84
2023/03/23 00:24:25;;;;;;;23.65;14.63;;;9.60;99.40;;;;;;5043917;28;20017;-83
2023/03/23 00:26:52;;;;;;;29.15;15.27;;;9.60;99.50;;;;;;5041795;28;20044;-82
2023/03/23 00:29:23;;;;;;;23.65;13.73;;;9.60;99.60;;;;;;5047431;28;20116;-84
2023/03/23 00:31:49;;;;;;;28.73;15.02;;;9.60;99.70;;;;;;5047624;28;20029;-83
2023/03/23 00:34:21;;;;;;;25.48;14.88;;;9.50;99.70;;;;;;5049585;28;20484;-83
2023/03/23 00:36:48;;;;;;;28.08;15.30;;;9.60;99.80;;;;;;5047132;28;20033;-82
2023/03/23 00:39:16;;;;;;;25.67;16.00;;;9.60;99.80;;;;;;5044990;28;20032;-83
2023/03/23 00:41:42;;;;;;;28.55;17.55;;;9.50;99.80;;;;;;5049075;28;20428;-81
2023/03/23 00:44:08;;;;;;;30.15;17.30;;;9.50;99.90;;;;;;5047531;28;20025;-83
2023/03/23 00:46:34;;;;;;;27.23;17.60;;;9.50;99.90;;;;;;5049649;28;20029;-83
2023/03/23 00:48:59;;;;;;;26.83;16.80;;;9.50;99.90;;;;;;5045962;28;20029;-76
2023/03/23 00:51:25;;;;;;;30.17;17.48;;;9.50;99.90;;;;;;5046899;28;20044;-76
2023/03/23 00:53:51;;;;;;;30.20;17.65;;;9.50;99.90;;;;;;5049769;28;20037;-83
2023/03/23 00:56:17;;;;;;;30.00;18.05;;;9.50;99.90;;;;;;5046632;28;20034;-80
2023/03/23 00:58:42;;;;;;;29.23;17.45;;;9.50;99.90;;;;;;5047727;28;20044;-83
2023/03/23 01:01:08;;;;;;;32.63;17.35;;;9.50;99.90;;;;;;5041356;28;20055;-77
2023/03/23 01:03:34;;;;;;;31.60;17.42;;;9.50;99.90;;;;;;5047139;28;20085;-83
2023/03/23 01:06:12;;;;;;;35.53;17.33;;;9.50;99.90;;;;;;5040484;28;20025;-83
2023/03/23 01:08:44;;;;;;;31.48;16.85;;;9.50;99.90;;;;;;5042281;28;20061;-84
2023/03/23 01:11:11;;;;;;;29.67;18.08;;;9.50;99.90;;;;;;5050357;28;20033;-82
2023/03/23 01:13:37;;;;;;;29.02;16.95;;;9.50;99.90;;;;;;5051408;28;20040;-83
2023/03/23 01:16:02;;;;;;;30.55;16.40;;;9.50;99.90;;;;;;5051682;28;20033;-81
2023/03/23 01:18:28;;;;;;;34.63;16.73;;;9.50;99.90;;;;;;5047077;28;20072;-83
2023/03/23 01:20:53;;;;;;;27.33;15.73;;;9.50;99.90;;;;;;5041367;28;20104;-84
2023/03/23 01:23:19;;;;;;;28.15;15.82;;;9.50;99.90;;;;;;5049483;28;20333;-82
2023/03/23 01:25:45;;;;;;;25.80;16.17;;;9.50;99.90;;;;;;5047162;28;20497;-83
2023/03/23 01:28:11;;;;;;;32.78;16.17;;;9.50;99.90;;;;;;5044245;28;20055;-81
2023/03/23 01:30:37;;;;;;;27.80;16.70;;;9.50;99.90;;;;;;5050001;28;20112;-83
2023/03/23 01:33:02;;;;;;;28.92;16.35;;;9.50;99.90;;;;;;5034154;28;20128;-82
2023/03/23 01:35:28;;;;;;;25.00;15.90;;;9.60;99.90;;;;;;5033515;28;20090;-82
2023/03/23 01:37:54;;;;;;;30.45;16.92;;;9.50;99.90;;;;;;5049888;28;20033;-83
2023/03/23 01:40:19;;;;;;;28.50;16.05;;;9.60;99.90;;;;;;5053007;28;20033;-81
2023/03/23 01:42:45;;;;;;;30.40;15.13;;;9.60;99.90;;;;;;5052539;28;20044;-83
2023/03/23 01:45:20;;;;;;;30.02;15.27;;;9.60;99.90;;;;;;5053200;28;20068;-83
2023/03/23 01:48:05;;;;;;;26.23;15.80;;;9.60;99.90;;;;;;5050776;28;20036;-83
2023/03/23 01:50:37;;;;;;;24.95;16.17;;;9.60;99.90;;;;;;5040134;28;20059;-79
2023/03/23 01:53:08;;;;;;;26.52;15.65;;;9.60;99.90;;;;;;5043228;28;20033;-84
2023/03/23 01:55:36;;;;;;;24.83;15.93;;;9.60;99.90;;;;;;5050165;28;20033;-82
2023/03/23 01:58:02;;;;;;;26.45;16.27;;;9.60;99.90;;;;;;5032443;28;20029;-81
2023/03/23 02:00:28;;;;;;;28.90;16.20;;;9.70;99.90;;;;;;5051852;28;20025;-83
2023/03/23 02:02:55;;;;;;;24.48;15.43;;;9.70;99.90;;;;;;5050008;28;20047;-82
2023/03/23 02:05:33;;;;;;;24.95;15.90;;;9.80;99.90;;;;;;5045268;28;20033;-83
2023/03/23 02:08:02;;;;;;;24.95;15.63;;;9.80;99.90;;;;;;5041039;28;20029;-84
2023/03/23 02:10:29;;;;;;;22.55;15.63;;;9.80;99.90;;;;;;5050493;28;20506;-83
2023/03/23 02:12:54;;;;;;;24.58;16.00;;;9.80;99.90;;;;;;5032889;28;20565;-78
2023/03/23 02:15:22;;;;;;;23.83;15.70;;;9.80;99.90;;;;;;5048176;28;20112;-79
2023/03/23 02:18:01;;;;;;;27.27;16.60;;;9.80;99.90;;;;;;5048137;28;20601;-83
2023/03/23 02:20:35;;;;;;;26.23;15.55;;;9.80;99.90;;;;;;5046889;28;20965;-83
2023/03/23 02:23:27;;;;;;;23.58;16.20;;;9.90;99.90;;;;;;5040649;28;20064;-84
2023/03/23 02:26:05;;;;;;;25.48;15.43;;;9.80;99.90;;;;;;5046231;28;20035;-84
2023/03/23 02:28:52;;;;;;;24.77;15.73;;;9.90;99.90;;;;;;5045794;28;20520;-85
2023/03/23 02:31:40;;;;;;;24.13;15.07;;;9.90;99.90;;;;;;5048471;28;20033;-80
2023/03/23 02:34:25;;;;;;;28.25;17.67;;;9.90;99.90;;;;;;5049321;28;20247;-85
2023/03/23 02:36:58;;;;;;;24.10;16.73;;;9.80;99.90;;;;;;5047405;28;20039;-85
2023/03/23 02:39:29;;;;;;;33.53;17.23;;;9.90;99.90;;;;;;5048920;28;20036;-81
2023/03/23 02:42:04;;;;;;;;;;;9.90;99.90;;;;;;5047837;28;20120;-83
2023/03/23 02:44:32;;;;;;;25.75;15.48;;;9.80;99.90;;;;;;5046156;28;19909;-84
2023/03/23 02:47:00;;;;;;;28.27;16.38;;;9.90;99.90;;;;;;5049492;28;20040;-84
2023/03/23 02:49:28;;;;;;;27.20;17.77;;;9.90;99.90;;;;;;5048816;28;20576;-84
2023/03/23 02:51:56;;;;;;;27.52;17.30;;;9.80;99.90;;;;;;5043939;28;20438;-83
2023/03/23 02:54:25;;;;;;;26.27;17.17;;;9.90;99.90;;;;;;5041739;28;20026;-81
2023/03/23 02:56:51;;;;;;;25.55;16.35;;;9.80;99.90;;;;;;5048336;28;20040;-83
2023/03/23 02:59:17;;;;;;;26.20;17.75;;;9.90;99.90;;;;;;5048810;28;20119;-85
2023/03/23 03:01:42;;;;;;;24.17;17.10;;;9.90;99.90;;;;;;5045270;28;20117;-85
2023/03/23 03:04:16;;;;;;;28.33;16.88;;;9.90;99.90;;;;;;5032377;28;20484;-82
2023/03/23 03:07:26;;;;;;;25.23;18.08;;;9.80;99.90;;;;;;5054259;28;20021;-73
2023/03/23 03:09:58;;;;;;;26.75;18.13;;;9.80;99.90;;;;;;5054840;28;20075;-76
2023/03/23 03:12:38;;;;;;;31.58;17.95;;;9.90;99.90;;;;;;5074282;28;20013;-72
2023/03/23 03:15:19;;;;;;;29.25;17.92;;;9.90;99.90;;;;;;5073655;28;20039;-78
2023/03/23 03:17:53;;;;;;;23.83;16.42;;;9.90;99.90;;;;;;5048614;28;20071;-86
2023/03/23 03:20:19;;;;;;;26.60;18.67;;;9.80;99.90;;;;;;5047818;28;20116;-84
2023/03/23 03:22:46;;;;;;;27.58;17.95;;;9.80;99.90;;;;;;5048359;28;20033;-80
2023/03/23 03:25:15;;;;;;;26.98;16.95;;;9.90;99.90;;;;;;5046544;28;20072;-84
2023/03/23 03:27:43;;;;;;;28.98;16.85;;;9.80;99.90;;;;;;5028979;28;20087;-77
2023/03/23 03:30:14;;;;;;;28.40;17.80;;;9.80;99.90;;;;;;5046679;28;20057;-84
2023/03/23 03:32:46;;;;;;;26.35;16.83;;;9.80;99.90;;;;;;5050320;28;20049;-83
2023/03/23 03:35:12;;;;;;;26.10;17.45;;;9.80;99.90;;;;;;5041040;28;20470;-81
2023/03/23 03:37:39;;;;;;;27.75;17.08;;;9.80;99.90;;;;;;5048273;28;20094;-84
2023/03/23 03:40:11;;;;;;;27.88;17.42;;;9.80;99.90;;;;;;5049240;28;20385;-84
2023/03/23 03:42:41;;;;;;;26.42;17.75;;;9.80;99.90;;;;;;5055718;28;20415;-85
2023/03/23 03:45:14;;;;;;;28.05;18.13;;;9.80;99.90;;;;;;5044061;28;20082;-77
2023/03/23 03:47:39;;;;;;;23.98;17.95;;;9.80;99.90;;;;;;5046803;28;20063;-84
2023/03/23 03:50:06;;;;;;;25.83;17.13;;;9.80;99.90;;;;;;5046757;28;20457;-85
2023/03/23 03:52:32;;;;;;;29.45;18.63;;;9.80;99.90;;;;;;5045742;28;20474;-84
2023/03/23 03:54:58;;;;;;;24.77;17.35;;;9.80;99.90;;;;;;5047538;28;20090;-83
2023/03/23 03:57:24;;;;;;;31.45;17.52;;;9.80;99.90;;;;;;5047485;28;20033;-84
2023/03/23 03:59:50;;;;;;;26.27;17.65;;;9.90;99.90;;;;;;5044821;28;20482;-79
2023/03/23 04:02:19;;;;;;;27.70;17.63;;;9.90;99.90;;;;;;5047236;28;20086;-83
2023/03/23 04:04:49;;;;;;;26.63;17.38;;;9.80;99.90;;;;;;5047751;28;20116;-81
2023/03/23 04:07:16;;;;;;;25.17;16.70;;;9.80;99.90;;;;;;5037287;28;20120;-85
2023/03/23 04:09:46;;;;;;;25.83;17.20;;;9.90;99.90;;;;;;5044990;28;20111;-84
2023/03/23 04:12:12;;;;;;;25.10;16.97;;;9.90;99.90;;;;;;5048214;28;20036;-85
2023/03/23 04:14:38;;;;;;;25.25;17.02;;;9.80;99.90;;;;;;5030034;28;20116;-85
2023/03/23 04:17:03;;;;;;;24.00;16.38;;;9.80;99.90;;;;;;5044419;28;20452;-85
2023/03/23 04:19:32;;;;;;;28.48;16.80;;;9.80;99.90;;;;;;5045191;28;20044;-82
2023/03/23 04:21:58;;;;;;;26.85;16.50;;;9.80;99.90;;;;;;5042386;28;20436;-76
2023/03/23 04:24:24;;;;;;;23.45;15.93;;;9.80;99.90;;;;;;5043030;28;20036;-79
2023/03/23 04:26:54;;;;;;;26.55;16.25;;;9.80;99.90;;;;;;5050015;28;20029;-83
2023/03/23 04:29:19;;;;;;;25.13;16.67;;;9.80;99.90;;;;;;5046118;28;20469;-84
2023/03/23 04:31:45;;;;;;;19.23;13.60;;;9.80;99.90;;;;;;5049972;28;20067;-85
2023/03/23 04:34:14;;;;;;;24.50;16.45;;;9.80;99.90;;;;;;5045989;28;20495;-81
2023/03/23 04:36:40;;;;;;;22.60;15.13;;;9.80;99.90;;;;;;5044597;28;20090;-82
2023/03/23 04:39:09;;;;;;;25.58;15.88;;;9.80;99.90;;;;;;5046602;28;20029;-83
2023/03/23 04:41:38;;;;;;;24.38;16.52;;;9.80;99.90;;;;;;5045313;28;20433;-83
2023/03/23 04:44:05;;;;;;;22.38;15.13;;;9.80;99.90;;;;;;5044923;28;20033;-85
2023/03/23 04:46:30;;;;;;;20.38;15.15;;;9.80;99.90;;;;;;5049231;28;20623;-83
2023/03/23 04:48:58;;;;;;;22.52;14.18;;;9.80;99.90;;;;;;5048413;28;20037;-85
2023/03/23 04:51:26;;;;;;;21.02;13.63;;;9.80;99.90;;;;;;5046506;28;20025;-76
2023/03/23 04:53:52;;;;;;;18.83;13.60;;;9.80;99.90;;;;;;5051530;28;20471;-84
2023/03/23 04:56:18;;;;;;;19.88;13.43;;;9.80;99.90;;;;;;5044006;28;20033;-85
2023/03/23 04:58:44;;;;;;;19.15;13.57;;;9.80;99.80;;;;;;5046358;28;20035;-85
2023/03/23 05:01:13;;;;;;;21.90;14.57;;;9.70;99.80;;;;;;5043934;28;20028;-85
2023/03/23 05:03:39;;;;;;;21.00;12.80;;;9.70;99.70;;;;;;5041074;28;20025;-84
2023/03/23 05:06:06;;;;;;;19.17;12.85;;;9.70;99.80;;;;;;5023986;28;20037;-81
2023/03/23 05:08:31;;;;;;;20.05;11.60;;;9.70;99.80;;;;;;5041818;28;20648;-84
2023/03/23 05:10:59;;;;;;;18.27;12.85;;;9.80;99.70;;;;;;5048964;28;20075;-85
2023/03/23 05:13:25;;;;;;;20.58;12.65;;;9.80;99.60;;;;;;5042425;28;20504;-82
2023/03/23 05:15:50;;;;;;;17.83;10.95;;;9.80;99.60;;;;;;5028953;28;20029;-83
2023/03/23 05:18:16;;;;;;;17.00;10.70;;;9.90;99.50;;;;;;5044849;28;20044;-81
2023/03/23 05:20:42;;;;;;;24.42;11.52;;;9.80;99.40;;;;;;5045753;28;20453;-82
2023/03/23 05:23:09;;;;;;;15.82;11.13;;;9.80;99.50;;;;;;5046777;28;20037;-83
2023/03/23 05:25:39;;;;;;;16.90;10.27;;;9.70;99.40;;;;;;5044884;28;20040;-82
2023/03/23 05:28:10;;;;;;;15.73;9.70;;;9.80;99.50;;;;;;5047594;28;21655;-84
2023/03/23 05:30:36;;;;;;;17.63;10.05;;;9.70;99.40;;;;;;5046567;28;20040;-82
2023/03/23 05:33:02;;;;;;;15.32;9.65;;;9.70;99.40;;;;;;5044270;28;20049;-77
2023/03/23 05:35:29;;;;;;;19.20;10.25;;;9.80;99.40;;;;;;5043472;28;20028;-77
2023/03/23 05:37:55;;;;;;;17.13;9.70;;;9.90;99.30;;;;;;5040913;28;20033;-77
2023/03/23 05:40:21;;;;;;;13.88;9.02;;;9.90;99.00;;;;;;5044915;28;20033;-76
2023/03/23 05:42:47;;;;;;;16.30;9.23;;;9.80;99.10;;;;;;5047145;28;20040;-77
2023/03/23 05:45:13;;;;;;;12.15;8.27;;;9.90;99.20;;;;;;5027182;28;20071;-78
2023/03/23 05:47:40;;;;;;;15.10;8.98;;;9.80;99.10;;;;;;5046339;28;20068;-77
2023/03/23 05:50:08;;;;;;;13.80;8.55;;;9.80;99.10;;;;;;5038010;28;20044;-79
2023/03/23 05:52:35;;;;;;;10.38;7.60;;;9.80;99.00;;;;;;5041636;28;20065;-78
2023/03/23 05:55:03;;;;;;;14.57;7.53;;;9.90;98.90;;;;;;5045084;28;20056;-74
2023/03/23 05:57:28;;;;;;;10.57;7.05;;;9.90;98.70;;;;;;5047567;28;20116;-77
2023/03/23 05:59:54;;;;;;;10.27;6.93;;;9.90;98.50;;;;;;5049835;28;20731;-76
2023/03/23 06:02:19;;;;;;;13.85;6.65;;;9.90;98.50;;;;;;5037991;28;20031;-77
2023/03/23 06:04:45;;;;;;;8.77;5.97;;;9.90;98.60;;;;;;5043116;28;20470;-77
2023/03/23 06:07:13;;;;;;;10.15;5.50;;;9.90;98.50;;;;;;5033740;28;20033;-75
2023/03/23 06:09:40;;;;;;;10.63;5.53;;;9.90;98.40;;;;;;5045983;28;20079;-77
2023/03/23 06:12:06;;;;;;;9.25;5.47;;;9.90;98.40;;;;;;5050935;28;20048;-77
2023/03/23 06:14:32;;;;;;;7.40;4.97;;;10.00;98.20;;;;;;5049927;28;20079;-72
2023/03/23 06:16:57;;;;;;;10.90;5.60;;;10.00;98.00;;;;;;5050136;28;20064;-76
2023/03/23 06:19:23;;;;;;;10.07;5.85;;;10.00;97.80;;;;;;5045073;28;20088;-76
2023/03/23 06:21:48;;;;;;;9.43;4.47;;;10.10;97.40;;;;;;5049455;28;20029;-75
2023/03/23 06:24:14;;;;;;;7.07;4.35;;;10.10;97.20;;;;;;5045518;28;20044;-80
2023/03/23 06:26:44;;;;;;;11.18;4.07;;;10.10;97.10;;;;;;5046848;28;20040;-79
2023/03/23 06:29:12;;;;;;;11.18;4.57;;;10.10;96.80;;;;;;5051141;28;20021;-73
2023/03/23 06:31:47;;;;;;;6.40;4.00;;;10.20;96.30;;;;;;5047061;28;20059;-76
2023/03/23 06:34:13;;;;;;;6.00;3.75;;;10.10;96.10;;;;;;5046625;28;20044;-71
2023/03/23 06:36:38;;;;;;;6.82;3.65;;;10.10;96.10;;;;;;5045100;28;20480;-74
2023/03/23 06:39:04;;;;;;;6.80;3.53;;;10.20;95.90;;;;;;5038248;28;20089;-79
2023/03/23 06:41:33;;;;;;;6.25;3.67;;;10.10;96.20;;;;;;5047652;28;20108;-79
2023/03/23 06:44:00;;;;;;;8.35;3.70;;;10.10;96.30;;;;;;5051709;28;20025;-79
2023/03/23 06:46:26;;;;;;;6.43;3.50;;;10.20;96.00;;;;;;5045100;28;20026;-79
2023/03/23 06:48:51;;;;;;;6.40;3.35;;;10.30;96.20;;;;;;5047627;28;20079;-78
2023/03/23 06:51:18;;;;;;;8.05;4.05;;;10.40;95.20;;;;;;5040488;28;20037;-78
2023/03/23 06:53:43;;;;;;;6.55;3.28;;;10.40;95.30;;;;;;5044659;28;20555;-79
2023/03/23 06:56:10;;;;;;;5.53;3.40;;;10.40;95.20;;;;;;5050494;28;20037;-78
2023/03/23 06:58:36;;;;;;;6.20;3.22;;;10.50;94.90;;;;;;5052560;28;20052;-79
2023/03/23 07:01:01;;;;;;;7.28;3.92;;;10.60;94.80;;;;;;5050414;28;20036;-75
2023/03/23 07:03:27;;;;;;;5.57;3.70;;;10.60;94.60;;;;;;5050811;28;20033;-79
2023/03/23 07:05:54;;;;;;;6.15;3.60;;;10.70;94.80;;;;;;5050608;28;20426;-78
2023/03/23 07:08:19;;;;;;;8.77;3.72;;;10.70;94.40;;;;;;5049878;28;20074;-78
2023/03/23 07:10:45;;;;;;;5.20;3.40;;;10.90;94.20;;;;;;5050939;28;20033;-79
2023/03/23 07:13:10;;;;;;;4.88;3.25;;;10.90;93.80;;;;;;5052453;28;20045;-79
2023/03/23 07:15:36;;;;;;;4.70;3.03;;;10.90;94.00;;;;;;5051312;28;20032;-79
2023/03/23 07:18:02;;;;;;;6.10;2.92;;;11.00;93.60;;;;;;5050609;28;20580;-74
2023/03/23 07:20:28;;;;;;;5.93;3.17;;;11.00;93.60;;;;;;5051617;28;20037;-79
2023/03/23 07:22:54;;;;;;;4.82;3.08;;;11.00;93.60;;;;;;5050253;28;20163;-78
2023/03/23 07:25:19;;;;;;;6.47;3.17;;;11.00;94.20;;;;;;5050215;28;20065;-78
2023/03/23 07:27:45;;;;;;;7.93;3.42;;;11.00;93.90;;;;;;5052054;28;20060;-77
2023/03/23 07:30:12;;;;;;;8.00;3.15;;;11.00;93.50;;;;;;5051083;28;20029;-79
2023/03/23 07:32:37;;;;;;;6.65;3.22;;;11.00;94.00;;;;;;5051107;28;20473;-73
2023/03/23 07:35:03;;;;;;;7.72;3.47;;;11.00;93.80;;;;;;5050139;28;20037;-78
2023/03/23 07:37:29;;;;;;;7.32;3.45;;;11.10;93.70;;;;;;5049484;28;20060;-77
2023/03/23 07:39:55;;;;;;;7.82;3.92;;;11.10;93.70;;;;;;5046122;28;20068;-79
2023/03/23 07:42:20;;;;;;;6.88;3.75;;;11.30;93.50;;;;;;5050609;28;20478;-77
2023/03/23 07:44:46;;;;;;;6.38;3.85;;;11.30;93.60;;;;;;5047324;28;20024;-79
2023/03/23 07:47:12;;;;;;;7.00;3.58;;;11.40;93.50;;;;;;5045831;28;20117;-78
2023/03/23 07:49:37;;;;;;;4.88;3.53;;;11.40;93.10;;;;;;5045969;28;20017;-79
2023/03/23 07:52:03;;;;;;;4.95;3.10;;;11.50;93.30;;;;;;5048724;28;20041;-78
2023/03/23 07:54:28;;;;;;;6.65;3.50;;;11.70;93.30;;;;;;5048772;28;20102;-79
2023/03/23 07:56:54;;;;;;;5.45;3.05;;;11.90;92.50;;;;;;5051823;28;20044;-78
2023/03/23 07:59:20;;;;;;;4.47;3.22;;;11.80;91.60;;;;;;5048762;28;20476;-78
2023/03/23 08:01:45;;;;;;;6.28;3.38;;;12.00;91.90;;;;;;5047725;28;20040;-79
2023/03/23 08:04:13;;;;;;;5.95;3.08;;;11.90;91.80;;;;;;5050047;28;20429;-76
2023/03/23 08:06:39;;;;;;;5.90;2.92;;;11.90;92.30;;;;;;5045557;28;20098;-79
2023/03/23 08:09:07;;;;;;;5.03;3.05;;;11.70;92.20;;;;;;5050184;28;20117;-79
2023/03/23 08:11:34;;;;;;;4.88;2.95;;;11.70;92.30;;;;;;5049870;28;20462;-79
2023/03/23 08:14:00;;;;;;;5.20;3.00;;;11.60;92.30;;;;;;5050167;28;20032;-78
2023/03/23 08:16:25;;;;;;;4.57;2.97;;;11.60;92.90;;;;;;5049675;28;20416;-78
2023/03/23 08:18:51;;;;;;;5.53;3.30;;;11.60;92.70;;;;;;5049519;28;20049;-78
2023/03/23 08:21:17;;;;;;;5.68;3.08;;;11.60;92.70;;;;;;5049743;28;20024;-79
2023/03/23 08:23:43;;;;;;;5.05;3.30;;;11.50;93.80;;;;;;5048484;28;20116;-76
2023/03/23 08:26:09;;;;;;;5.55;3.45;;;11.40;94.30;;;;;;5032361;28;20060;-78
2023/03/23 08:28:36;;;;;;;5.50;3.70;;;11.30;95.10;;;;;;5049081;28;20039;-79
2023/03/23 08:31:10;;;;;;;4.82;2.60;;;11.10;95.90;;;;;;5049196;28;20041;-79
2023/03/23 08:33:36;;;;;;;3.45;1.70;;;10.90;95.50;;;;;;5042114;28;20071;-76
2023/03/23 08:36:02;;;;;;;1.70;1.23;;;10.50;93.30;;;;;;5052943;28;20445;-74
2023/03/23 08:38:28;;;;;;;2.22;0.90;;;10.40;93.40;;;;;;5042216;28;20021;-79
2023/03/23 08:40:59;;;;;;;2.25;1.10;;;10.30;93.10;;;;;;5047319;28;20458;-78
2023/03/23 08:43:24;;;;;;;4.53;1.00;;;10.20;93.60;;;;;;5050169;28;20029;-79
2023/03/23 08:45:53;;;;;;;3.30;1.33;;;10.10;93.90;;;;;;5043374;28;20051;-76
2023/03/23 08:48:19;;;;;;;1.80;0.93;;;10.10;94.10;;;;;;5042189;28;20039;-80
2023/03/23 08:50:44;;;;;;;3.38;1.25;;;10.10;94.40;;;;;;5044944;28;20041;-77
2023/03/23 08:53:11;;;;;;;6.45;1.40;;;10.10;94.90;;;;;;5042916;28;20109;-79
2023/03/23 08:55:37;;;;;;;2.72;1.60;;;10.10;95.20;;;;;;5049650;28;20457;-80
2023/03/23 08:58:03;;;;;;;3.05;1.63;;;10.10;95.30;;;;;;5049711;28;20029;-79
2023/03/23 09:00:30;;;;;;;6.25;2.13;;;10.10;95.50;;;;;;5048196;28;20458;-79
2023/03/23 09:02:56;;;;;;;6.30;1.95;;;10.20;95.60;;;;;;5048732;28;20034;-76
2023/03/23 09:05:24;;;;;;;5.95;1.98;;;10.30;95.60;;;;;;5046658;28;20041;-79
2023/03/23 09:07:51;;;;;;;6.03;2.35;;;10.30;95.50;;;;;;5047628;28;20056;-78
2023/03/23 09:10:17;;;;;;;3.08;1.88;;;10.40;95.50;;;;;;5049156;28;20033;-79
2023/03/23 09:12:45;;;;;;;5.03;2.00;;;10.50;95.20;;;;;;5049904;28;20049;-79
2023/03/23 09:15:14;;;;;;;5.30;1.60;;;10.60;94.00;;;;;;5049924;28;20033;-79
2023/03/23 09:17:42;;;;;;;4.68;1.98;;;10.60;94.20;;;;;;5044997;28;20477;-80
2023/03/23 09:20:12;;;;;;;5.05;2.20;;;10.60;94.90;;;;;;5050523;28;20056;-79
2023/03/23 09:22:39;;;;;;;8.45;2.00;;;10.50;94.90;;;;;;5047939;28;20029;-79
2023/03/23 09:25:07;;;;;;;4.05;1.92;;;10.60;95.30;;;;;;5045353;28;20555;-79
2023/03/23 09:27:33;;;;;;;3.65;1.80;;;10.60;95.10;;;;;;5051761;28;20116;-76
2023/03/23 09:29:58;;;;;;;4.78;1.60;;;10.50;94.80;;;;;;5053292;28;20171;-77
2023/03/23 09:32:24;;;;;;;9.02;1.92;;;10.50;94.70;;;;;;5048061;28;20036;-78
2023/03/23 09:34:51;;;;;;;7.72;2.00;;;10.50;95.20;;;;;;5046424;28;20036;-72
2023/03/23 09:37:17;;;;;;;10.15;2.67;;;10.60;95.30;;;;;;5052313;28;20048;-79
2023/03/23 09:39:42;;;;;;;6.45;2.10;;;10.80;94.90;;;;;;5045611;28;20068;-78
2023/03/23 09:42:25;;;;;;;5.75;1.90;;;11.00;95.00;;;;;;5049150;28;20029;-78
2023/03/23 09:44:58;;;;;;;8.00;2.33;;;11.20;94.90;;;;;;5051951;28;20474;-76
2023/03/23 09:47:37;;;;;;;10.13;2.65;;;11.10;94.00;;;;;;5047417;28;20021;-75
2023/03/23 09:50:11;;;;;;;8.60;2.03;;;11.10;93.90;;;;;;5030015;28;20566;-79
2023/03/23 09:52:54;;;;;;;8.60;2.10;;;11.10;94.20;;;;;;5052048;28;20063;-79
2023/03/23 09:55:20;;;;;;;9.07;2.17;;;11.10;93.70;;;;;;5052707;28;20032;-75
2023/03/23 09:58:07;;;;;;;8.07;1.88;;;11.00;93.50;;;;;;5044597;28;20481;-79
2023/03/23 10:00:35;;;;;;;8.55;2.28;;;11.10;94.10;;;;;;5045288;28;20059;-78
2023/03/23 10:03:19;;;;;;;8.27;1.95;;;11.00;94.40;;;;;;5052630;28;20040;-77
2023/03/23 10:05:48;;;;;;;6.43;1.88;;;10.90;94.00;;;;;;5039559;28;20083;-78
2023/03/23 10:08:17;;;;;;;12.32;2.08;;;10.90;94.00;;;;;;5049996;28;20033;-79
2023/03/23 10:10:46;;;;;;;9.00;1.92;;;11.00;94.20;;;;;;5052728;28;20045;-78
2023/03/23 10:13:24;;;;;;;10.55;1.90;;;11.00;93.90;;;;;;5045838;28;20358;-79
2023/03/23 10:15:51;;;;;;;6.90;1.98;;;11.00;94.00;;;;;;5052815;28;20395;-79
2023/03/23 10:18:19;;;;;;;10.75;2.25;;;11.00;93.60;;;;;;5046237;28;20051;-79
2023/03/23 10:20:50;;;;;;;12.70;2.42;;;11.10;93.70;;;;;;5052932;28;20032;-79
2023/03/23 10:23:19;;;;;;;9.23;2.00;;;11.20;93.50;;;;;;5050753;28;20028;-79
2023/03/23 10:26:29;;;;;;;11.30;2.53;;;11.30;93.60;;;;;;5052360;28;20035;-78
2023/03/23 10:29:00;;;;;;;6.50;2.55;;;11.30;93.60;;;;;;5022330;28;20060;-79
2023/03/23 10:31:35;;;;;;;11.10;2.15;;;11.20;93.60;;;;;;5050712;28;20021;-78
2023/03/23 10:34:15;;;;;;;9.75;2.58;;;11.30;93.70;;;;;;5049243;28;20069;-74
2023/03/23 10:36:56;;;;;;;7.72;2.25;;;11.30;93.30;;;;;;5046360;28;20044;-79
2023/03/23 10:39:23;;;;;;;;;;;11.30;93.40;;;;;;5043081;28;20036;-74
2023/03/23 10:41:49;;;;;;;15.00;2.50;;;11.30;93.80;;;;;;5053004;28;19901;-79
2023/03/23 10:44:21;;;;;;;11.52;2.60;;;11.40;93.50;;;;;;5049016;28;20047;-78
2023/03/23 10:47:04;;;;;;;7.95;2.60;;;11.40;93.90;;;;;;5047347;28;20108;-78
2023/03/23 10:49:38;;;;;;;10.23;3.28;;;11.40;93.50;;;;;;5051716;28;20033;-77
2023/03/23 10:52:11;;;;;;;6.53;2.20;;;11.50;94.10;;;;;;5050262;28;20031;-78
2023/03/23 10:54:49;;;;;;;7.55;2.03;;;11.60;94.10;;;;;;5050625;28;20064;-79
2023/03/23 10:57:28;;;;;;;8.68;1.80;;;11.60;93.30;;;;;;5046288;28;20029;-79
2023/03/23 10:59:59;;;;;;;9.77;2.55;;;11.60;93.30;;;;;;5051142;28;20481;-78
2023/03/23 11:02:25;;;;;;;6.70;2.15;;;11.50;93.20;;;;;;5049632;28;20037;-78
2023/03/23 11:04:59;;;;;;;9.35;2.17;;;11.50;92.70;;;;;;5050392;28;20036;-79
2023/03/23 11:07:29;;;;;;;9.40;2.60;;;11.40;92.80;;;;;;5046837;28;20516;-78
2023/03/23 11:09:58;;;;;;;10.63;2.13;;;11.30;92.80;;;;;;5050328;28;20082;-78
2023/03/23 11:12:23;;;;;;;9.40;2.53;;;11.40;93.10;;;;;;5052116;28;20429;-79
2023/03/23 11:14:49;;;;;;;7.07;2.20;;;11.60;92.40;;;;;;5051156;28;20111;-79
2023/03/23 11:17:26;;;;;;;11.25;2.22;;;11.60;91.90;;;;;;5050539;28;20033;-78
2023/03/23 11:19:54;;;;;;;7.20;2.15;;;11.70;91.50;;;;;;5043704;28;20505;-79
2023/03/23 11:22:27;;;;;;;11.10;2.05;;;11.50;91.00;;;;;;5050327;28;20048;-77
2023/03/23 11:24:55;;;;;;;9.70;2.00;;;11.30;91.20;;;;;;5049891;28;20519;-79
2023/03/23 11:27:22;;;;;;;7.35;2.17;;;11.30;91.30;;;;;;5052014;28;20385;-78
2023/03/23 11:30:01;;;;;;;8.95;2.58;;;11.40;91.30;;;;;;5050473;28;20466;-78
2023/03/23 11:32:29;;;;;;;9.35;2.15;;;11.50;91.50;;;;;;5051479;28;20504;-80
2023/03/23 11:34:59;;;;;;;12.30;1.98;;;11.70;91.10;;;;;;5048846;28;20061;-78
2023/03/23 11:37:42;;;;;;;11.20;2.50;;;11.80;90.90;;;;;;5049371;28;20040;-80
2023/03/23 11:40:10;;;;;;;8.02;2.22;;;11.70;90.80;;;;;;5028804;28;20033;-79
2023/03/23 11:42:57;;;;;;;11.98;2.70;;;11.50;91.30;;;;;;5050974;28;20048;-72
2023/03/23 11:45:42;;;;;;;7.47;2.30;;;11.50;91.60;;;;;;5041788;28;20455;-78
2023/03/23 11:48:27;;;;;;;11.35;2.65;;;11.60;92.00;;;;;;5045562;28;20493;-77
2023/03/23 11:51:11;;;;;;;9.50;2.60;;;11.70;91.30;;;;;;5039841;28;20040;-75
2023/03/23 11:53:58;;;;;;;11.82;2.55;;;11.90;91.60;;;;;;5042282;28;20106;-75
2023/03/23 11:56:34;;;;;;;8.07;2.70;;;12.00;90.40;;;;;;5048157;28;20033;-74
2023/03/23 11:59:02;;;;;;;12.77;3.22;;;11.80;90.50;;;;;;5046367;28;20040;-74
2023/03/23 12:01:47;;;;;;;13.52;2.58;;;11.70;90.70;;;;;;5043094;28;20409;-75
2023/03/23 12:04:18;;;;;;;8.85;2.60;;;11.70;91.00;;;;;;5044168;28;20025;-77
2023/03/23 12:06:44;;;;;;;;;;;11.80;90.80;;;;;;5047908;28;20032;-77
2023/03/23 12:09:47;;;;;;;14.00;2.90;;;11.80;91.10;;;;;;5028695;28;19938;-77
2023/03/23 12:12:50;;;;;;;11.07;3.10;;;11.70;91.30;;;;;;5046495;28;20040;-76
2023/03/23 12:15:38;;;;;;;10.63;3.22;;;11.70;91.10;;;;;;5047376;28;20040;-76
2023/03/23 12:18:25;;;;;;;9.05;2.72;;;11.70;91.30;;;;;;5042726;28;20060;-74
2023/03/23 12:21:19;;;;;;;14.13;3.30;;;11.80;91.40;;;;;;5046763;28;20112;-73
2023/03/23 12:23:59;;;;;;;15.63;3.28;;;11.80;91.80;;;;;;5064728;28;20041;-74
2023/03/23 12:26:34;;;;;;;9.00;3.15;;;12.00;92.40;;;;;;5046421;28;20033;-77
2023/03/23 12:29:08;;;;;;;9.57;2.60;;;12.10;91.50;;;;;;5053675;28;20044;-71
2023/03/23 12:31:58;;;;;;;8.05;2.72;;;12.20;91.10;;;;;;5061784;28;20029;-77
2023/03/23 12:34:32;;;;;;;10.25;2.72;;;12.20;90.90;;;;;;5059386;28;20040;-75
2023/03/23 12:37:28;;;;;;;8.73;2.53;;;12.10;90.50;;;;;;5055457;28;20025;-78
2023/03/23 12:40:17;;;;;;;6.95;2.40;;;12.20;90.40;;;;;;5037337;28;20107;-78
2023/03/23 12:42:50;;;;;;;8.18;2.80;;;12.10;90.20;;;;;;5021510;28;20046;-77
2023/03/23 12:45:40;;;;;;;9.77;2.58;;;12.10;90.20;;;;;;5056652;28;20032;-77
2023/03/23 12:48:11;;;;;;;7.55;2.45;;;12.30;90.10;;;;;;5053367;28;20032;-77
2023/03/23 12:50:46;;;;;;;;;;;12.80;88.90;;;;;;5054991;28;20036;-79
2023/03/23 12:53:30;;;;;;;9.45;2.50;;;12.80;88.40;;;;;;5054575;28;19920;-78
2023/03/23 12:56:18;;;;;;;9.50;2.08;;;12.90;87.50;;;;;;5056099;28;20493;-79
2023/03/23 12:58:51;;;;;;;9.52;2.00;;;13.10;87.10;;;;;;5057573;28;20029;-78